WEATHER/FLIGHT PLANNING

Hattiesburg Radar

 

 

 

 

Weather Links

Flight Planning Links

 

METAR

2014/10/01 11:53 KHBG 011153Z AUTO 00000KT 1/4SM FG VV002 19/18 A2994 RMK AO2 SLP136 T01890183 10206 20189 51010 $

TAF

2014/10/01 12:06 TAF AMD KHBG 011203Z 0112/0212 00000KT 1/4SM FG VV002 FM011400 15003KT P6SM BKN003 FM011600 16006KT P6SM SCT100 FM020700 16002KT 4SM BR OVC025 FM020900 16002KT 4SM BR OVC010